PWSweather.com
Personal Weather Stations
Station Observations
BAYPARK
Bay Park, Ny, East Rockaway, NY 11518

Bay Park, NyEast Rockaway, NY 11518

Lat: 40.6310098, Lon: -73.6727287

Elevation: 11

Station Type: AcuRite Pro

https://www.awekas.at/en/instrument.php?id=14894

High Low Average
Temperature 73.4°F23.0°C 54.5°F12.5°C 62.1°F16.7°C
Dew Point 56.3°F13.5°C 43.8°F6.6°C 51.0°F10.6°C
Winds 3.2 mph 5.1 kmh Calm Calm 1.0 mph SSE1.6 kmh SSE
Wind Gusts 7.8 mph12.6 kmh -- 2.0 mph3.2 kmh
Humidity 95% 45% 69%
Pressure 30.36 in1028.1 mb 30.19 in1022.4 mb -
Precipitation 0.00 in0.0 mm - -
Hour Temp Dew Point Humidity Winds Wind Gusts Pressure Precip Precip Rate Daily Precip Total
12:00 AM 59.0°F15.0°C 54.8°F12.7°C 86% Calm Calm -- 30.19 in1022.4 mb 0.00 in0.0 mm 0.00 in0.0 mm 0.00 in0.0 mm
12:05 AM 58.9°F14.9°C 54.8°F12.7°C 86% Calm Calm -- 30.19 in1022.4 mb 0.00 in0.0 mm 0.00 in0.0 mm 0.00 in0.0 mm
12:10 AM 58.8°F14.9°C 54.6°F12.6°C 86% Calm Calm -- 30.19 in1022.4 mb 0.00 in0.0 mm 0.00 in0.0 mm 0.00 in0.0 mm
12:15 AM 58.5°F14.7°C 54.2°F12.3°C 86% Calm Calm -- 30.19 in1022.4 mb 0.00 in0.0 mm 0.00 in0.0 mm 0.00 in0.0 mm
12:20 AM 58.3°F14.6°C 54.1°F12.3°C 86% Calm Calm -- 30.19 in1022.4 mb 0.00 in0.0 mm 0.00 in0.0 mm 0.00 in0.0 mm
12:25 AM 58.2°F14.6°C 54.2°F12.3°C 87% Calm Calm -- 30.20 in1022.7 mb 0.00 in0.0 mm 0.00 in0.0 mm 0.00 in0.0 mm
12:30 AM 58.0°F14.4°C 54.4°F12.4°C 88% Calm Calm -- 30.20 in1022.7 mb 0.00 in0.0 mm 0.00 in0.0 mm 0.00 in0.0 mm
12:35 AM 57.9°F14.4°C 54.4°F12.4°C 88% Calm Calm -- 30.20 in1022.7 mb 0.00 in0.0 mm 0.00 in0.0 mm 0.00 in0.0 mm
12:40 AM 57.8°F14.3°C 54.5°F12.5°C 89% Calm Calm -- 30.20 in1022.7 mb 0.00 in0.0 mm 0.00 in0.0 mm 0.00 in0.0 mm
12:45 AM 57.8°F14.3°C 54.2°F12.3°C 88% Calm Calm -- 30.20 in1022.7 mb 0.00 in0.0 mm 0.00 in0.0 mm 0.00 in0.0 mm
12:50 AM 57.6°F14.2°C 54.3°F12.4°C 89% Calm Calm -- 30.20 in1022.7 mb 0.00 in0.0 mm 0.00 in0.0 mm 0.00 in0.0 mm
12:55 AM 57.6°F14.2°C 54.4°F12.4°C 89% Calm Calm -- 30.20 in1022.7 mb 0.00 in0.0 mm 0.00 in0.0 mm 0.00 in0.0 mm
01:00 AM 57.8°F14.3°C 54.6°F12.6°C 89% Calm Calm -- 30.20 in1022.7 mb 0.00 in0.0 mm 0.00 in0.0 mm 0.00 in0.0 mm
01:05 AM 57.7°F14.3°C 54.5°F12.5°C 89% Calm Calm -- 30.20 in1022.7 mb 0.00 in0.0 mm 0.00 in0.0 mm 0.00 in0.0 mm
01:10 AM 57.7°F14.3°C 54.5°F12.5°C 89% Calm Calm -- 30.20 in1022.7 mb 0.00 in0.0 mm 0.00 in0.0 mm 0.00 in0.0 mm
01:15 AM 57.8°F14.3°C 54.6°F12.6°C 89% Calm Calm -- 30.20 in1022.7 mb 0.00 in0.0 mm 0.00 in0.0 mm 0.00 in0.0 mm
01:20 AM 58.0°F14.4°C 54.7°F12.6°C 89% Calm Calm -- 30.20 in1022.7 mb 0.00 in0.0 mm 0.00 in0.0 mm 0.00 in0.0 mm
01:25 AM 57.6°F14.2°C 54.4°F12.4°C 89% Calm Calm -- 30.20 in1022.7 mb 0.00 in0.0 mm 0.00 in0.0 mm 0.00 in0.0 mm
01:30 AM 57.4°F14.1°C 54.5°F12.5°C 90% Calm Calm -- 30.20 in1022.7 mb 0.00 in0.0 mm 0.00 in0.0 mm 0.00 in0.0 mm
01:35 AM 57.3°F14.1°C 54.4°F12.4°C 90% Calm Calm -- 30.20 in1022.7 mb 0.00 in0.0 mm 0.00 in0.0 mm 0.00 in0.0 mm
01:40 AM 57.2°F14.0°C 54.3°F12.4°C 90% Calm Calm -- 30.20 in1022.7 mb 0.00 in0.0 mm 0.00 in0.0 mm 0.00 in0.0 mm
01:45 AM 57.1°F13.9°C 54.5°F12.5°C 91% Calm Calm -- 30.20 in1022.7 mb 0.00 in0.0 mm 0.00 in0.0 mm 0.00 in0.0 mm
01:50 AM 56.9°F13.8°C 54.3°F12.4°C 91% Calm Calm -- 30.20 in1022.7 mb 0.00 in0.0 mm 0.00 in0.0 mm 0.00 in0.0 mm
01:55 AM 56.7°F13.7°C 54.1°F12.3°C 91% Calm Calm -- 30.20 in1022.7 mb 0.00 in0.0 mm 0.00 in0.0 mm 0.00 in0.0 mm
02:00 AM 56.7°F13.7°C 54.2°F12.3°C 92% Calm Calm -- 30.20 in1022.7 mb 0.00 in0.0 mm 0.00 in0.0 mm 0.00 in0.0 mm
02:05 AM 56.5°F13.6°C 54.5°F12.5°C 93% 0.1 mph W0.2 kmh W 1.1 mph1.8 kmh 30.20 in1022.7 mb 0.00 in0.0 mm 0.00 in0.0 mm 0.00 in0.0 mm
02:10 AM 56.6°F13.7°C 54.7°F12.6°C 93% 0.1 mph N0.2 kmh N 1.1 mph1.8 kmh 30.20 in1022.7 mb 0.00 in0.0 mm 0.00 in0.0 mm 0.00 in0.0 mm
02:15 AM 56.8°F13.8°C 55.1°F12.8°C 94% Calm Calm -- 30.20 in1022.7 mb 0.00 in0.0 mm 0.00 in0.0 mm 0.00 in0.0 mm
02:20 AM 57.0°F13.9°C 55.3°F12.9°C 94% 0.1 mph ESE0.2 kmh ESE 1.1 mph1.8 kmh 30.20 in1022.7 mb 0.00 in0.0 mm 0.00 in0.0 mm 0.00 in0.0 mm
02:25 AM 57.0°F13.9°C 55.3°F12.9°C 94% 0.1 mph NE0.2 kmh NE 1.1 mph1.8 kmh 30.20 in1022.7 mb 0.00 in0.0 mm 0.00 in0.0 mm 0.00 in0.0 mm
02:30 AM 57.1°F13.9°C 55.4°F13.0°C 94% Calm Calm -- 30.20 in1022.7 mb 0.00 in0.0 mm 0.00 in0.0 mm 0.00 in0.0 mm
02:35 AM 57.2°F14.0°C 55.5°F13.1°C 94% Calm Calm -- 30.20 in1022.7 mb 0.00 in0.0 mm 0.00 in0.0 mm 0.00 in0.0 mm
02:40 AM 57.2°F14.0°C 55.3°F12.9°C 93% 0.1 mph N0.2 kmh N 1.7 mph2.7 kmh 30.20 in1022.7 mb 0.00 in0.0 mm 0.00 in0.0 mm 0.00 in0.0 mm
02:45 AM 57.1°F13.9°C 55.1°F12.8°C 93% 0.5 mph SE0.8 kmh SE 2.7 mph4.3 kmh 30.20 in1022.7 mb 0.00 in0.0 mm 0.00 in0.0 mm 0.00 in0.0 mm
02:50 AM 57.3°F14.1°C 55.3°F12.9°C 93% Calm Calm -- 30.20 in1022.7 mb 0.00 in0.0 mm 0.00 in0.0 mm 0.00 in0.0 mm
02:55 AM 57.3°F14.1°C 55.0°F12.8°C 92% 0.1 mph ESE0.2 kmh ESE 1.1 mph1.8 kmh 30.20 in1022.7 mb 0.00 in0.0 mm 0.00 in0.0 mm 0.00 in0.0 mm
03:00 AM 57.3°F14.1°C 55.0°F12.8°C 92% 0.1 mph SSE0.2 kmh SSE 1.1 mph1.8 kmh 30.20 in1022.7 mb 0.00 in0.0 mm 0.00 in0.0 mm 0.00 in0.0 mm
03:05 AM 57.4°F14.1°C 55.1°F12.8°C 92% Calm Calm -- 30.20 in1022.7 mb 0.00 in0.0 mm 0.00 in0.0 mm 0.00 in0.0 mm
03:10 AM 57.3°F14.1°C 55.0°F12.8°C 92% 0.3 mph NNE0.5 kmh NNE 1.7 mph2.7 kmh 30.20 in1022.7 mb 0.00 in0.0 mm 0.00 in0.0 mm 0.00 in0.0 mm
03:15 AM 57.2°F14.0°C 54.9°F12.7°C 92% 0.5 mph ENE0.8 kmh ENE 2.7 mph4.3 kmh 30.20 in1022.7 mb 0.00 in0.0 mm 0.00 in0.0 mm 0.00 in0.0 mm
03:20 AM 57.2°F14.0°C 54.9°F12.7°C 92% 0.2 mph ESE0.3 kmh ESE 1.7 mph2.7 kmh 30.20 in1022.7 mb 0.00 in0.0 mm 0.00 in0.0 mm 0.00 in0.0 mm
03:25 AM 57.2°F14.0°C 54.9°F12.7°C 92% 0.1 mph NNE0.2 kmh NNE 1.1 mph1.8 kmh 30.20 in1022.7 mb 0.00 in0.0 mm 0.00 in0.0 mm 0.00 in0.0 mm
03:30 AM 57.2°F14.0°C 54.9°F12.7°C 92% Calm Calm -- 30.20 in1022.7 mb 0.00 in0.0 mm 0.00 in0.0 mm 0.00 in0.0 mm
03:35 AM 57.3°F14.1°C 55.0°F12.8°C 92% Calm Calm -- 30.20 in1022.7 mb 0.00 in0.0 mm 0.00 in0.0 mm 0.00 in0.0 mm
03:40 AM 57.0°F13.9°C 54.7°F12.6°C 92% 0.3 mph W0.5 kmh W 2.7 mph4.3 kmh 30.20 in1022.7 mb 0.00 in0.0 mm 0.00 in0.0 mm 0.00 in0.0 mm
03:45 AM 57.0°F13.9°C 54.7°F12.6°C 92% Calm Calm -- 30.20 in1022.7 mb 0.00 in0.0 mm 0.00 in0.0 mm 0.00 in0.0 mm
03:50 AM 56.8°F13.8°C 54.5°F12.5°C 92% Calm Calm -- 30.20 in1022.7 mb 0.00 in0.0 mm 0.00 in0.0 mm 0.00 in0.0 mm
03:55 AM 56.8°F13.8°C 54.5°F12.5°C 92% Calm Calm -- 30.20 in1022.7 mb 0.00 in0.0 mm 0.00 in0.0 mm 0.00 in0.0 mm
04:00 AM 56.8°F13.8°C 54.5°F12.5°C 92% 0.1 mph N0.2 kmh N 1.1 mph1.8 kmh 30.20 in1022.7 mb 0.00 in0.0 mm 0.00 in0.0 mm 0.00 in0.0 mm
04:05 AM 56.7°F13.7°C 54.4°F12.4°C 92% Calm Calm -- 30.20 in1022.7 mb 0.00 in0.0 mm 0.00 in0.0 mm 0.00 in0.0 mm
04:10 AM 56.7°F13.7°C 54.4°F12.4°C 92% Calm Calm -- 30.20 in1022.7 mb 0.00 in0.0 mm 0.00 in0.0 mm 0.00 in0.0 mm
04:15 AM 56.6°F13.7°C 54.3°F12.4°C 92% 0.1 mph N0.2 kmh N 1.1 mph1.8 kmh 30.20 in1022.7 mb 0.00 in0.0 mm 0.00 in0.0 mm 0.00 in0.0 mm
04:20 AM 56.3°F13.5°C 54.0°F12.2°C 92% Calm Calm -- 30.20 in1022.7 mb 0.00 in0.0 mm 0.00 in0.0 mm 0.00 in0.0 mm
04:25 AM 56.1°F13.4°C 54.1°F12.3°C 93% Calm Calm -- 30.21 in1023.0 mb 0.00 in0.0 mm 0.00 in0.0 mm 0.00 in0.0 mm
04:30 AM 55.9°F13.3°C 54.0°F12.2°C 93% Calm Calm -- 30.21 in1023.0 mb 0.00 in0.0 mm 0.00 in0.0 mm 0.00 in0.0 mm
04:35 AM 55.9°F13.3°C 54.2°F12.3°C 94% Calm Calm -- 30.21 in1023.0 mb 0.00 in0.0 mm 0.00 in0.0 mm 0.00 in0.0 mm
04:40 AM 55.9°F13.3°C 54.2°F12.3°C 94% Calm Calm -- 30.21 in1023.0 mb 0.00 in0.0 mm 0.00 in0.0 mm 0.00 in0.0 mm
04:45 AM 55.8°F13.2°C 54.1°F12.3°C 94% Calm Calm -- 30.21 in1023.0 mb 0.00 in0.0 mm 0.00 in0.0 mm 0.00 in0.0 mm
04:50 AM 55.6°F13.1°C 53.6°F12.0°C 93% Calm Calm -- 30.22 in1023.4 mb 0.00 in0.0 mm 0.00 in0.0 mm 0.00 in0.0 mm
04:55 AM 55.4°F13.0°C 53.4°F11.9°C 93% Calm Calm -- 30.22 in1023.4 mb 0.00 in0.0 mm 0.00 in0.0 mm 0.00 in0.0 mm
05:00 AM 55.4°F13.0°C 53.7°F12.1°C 94% Calm Calm -- 30.22 in1023.4 mb 0.00 in0.0 mm 0.00 in0.0 mm 0.00 in0.0 mm
05:05 AM 55.4°F13.0°C 53.7°F12.1°C 94% Calm Calm -- 30.22 in1023.4 mb 0.00 in0.0 mm 0.00 in0.0 mm 0.00 in0.0 mm
05:10 AM 55.3°F12.9°C 53.6°F12.0°C 94% Calm Calm -- 30.22 in1023.4 mb 0.00 in0.0 mm 0.00 in0.0 mm 0.00 in0.0 mm
05:15 AM 55.4°F13.0°C 53.7°F12.1°C 94% Calm Calm -- 30.23 in1023.7 mb 0.00 in0.0 mm 0.00 in0.0 mm 0.00 in0.0 mm
05:20 AM 55.3°F12.9°C 53.6°F12.0°C 94% Calm Calm -- 30.23 in1023.7 mb 0.00 in0.0 mm 0.00 in0.0 mm 0.00 in0.0 mm
05:25 AM 55.1°F12.8°C 53.5°F11.9°C 94% Calm Calm -- 30.23 in1023.7 mb 0.00 in0.0 mm 0.00 in0.0 mm 0.00 in0.0 mm
05:30 AM 55.2°F12.9°C 53.8°F12.1°C 95% Calm Calm -- 30.23 in1023.7 mb 0.00 in0.0 mm 0.00 in0.0 mm 0.00 in0.0 mm
05:35 AM 55.4°F13.0°C 54.0°F12.2°C 95% Calm Calm -- 30.23 in1023.7 mb 0.00 in0.0 mm 0.00 in0.0 mm 0.00 in0.0 mm
05:40 AM 55.7°F13.2°C 54.3°F12.4°C 95% Calm Calm -- 30.23 in1023.7 mb 0.00 in0.0 mm 0.00 in0.0 mm 0.00 in0.0 mm
05:45 AM 55.8°F13.2°C 54.4°F12.4°C 95% Calm Calm -- 30.23 in1023.7 mb 0.00 in0.0 mm 0.00 in0.0 mm 0.00 in0.0 mm
05:50 AM 56.2°F13.4°C 54.6°F12.6°C 94% Calm Calm -- 30.24 in1024.0 mb 0.00 in0.0 mm 0.00 in0.0 mm 0.00 in0.0 mm
05:55 AM 56.6°F13.7°C 54.7°F12.6°C 94% 0.1 mph SW0.2 kmh SW 1.1 mph1.8 kmh 30.24 in1024.0 mb 0.00 in0.0 mm 0.00 in0.0 mm 0.00 in0.0 mm
06:00 AM 57.1°F13.9°C 55.1°F12.8°C 93% Calm Calm -- 30.24 in1024.0 mb 0.00 in0.0 mm 0.00 in0.0 mm 0.00 in0.0 mm
06:05 AM 57.6°F14.2°C 55.2°F12.9°C 91% 0.1 mph N0.2 kmh N 1.1 mph1.8 kmh 30.24 in1024.0 mb 0.00 in0.0 mm 0.00 in0.0 mm 0.00 in0.0 mm
06:10 AM 57.7°F14.3°C 55.1°F12.8°C 91% 0.1 mph S0.2 kmh S 1.1 mph1.8 kmh 30.24 in1024.0 mb 0.00 in0.0 mm 0.00 in0.0 mm 0.00 in0.0 mm
06:15 AM 57.7°F14.3°C 55.1°F12.8°C 91% Calm Calm -- 30.25 in1024.4 mb 0.00 in0.0 mm 0.00 in0.0 mm 0.00 in0.0 mm
06:20 AM 57.7°F14.3°C 55.0°F12.8°C 91% Calm Calm -- 30.25 in1024.4 mb 0.00 in0.0 mm 0.00 in0.0 mm 0.00 in0.0 mm
06:25 AM 57.6°F14.2°C 55.0°F12.8°C 91% 0.1 mph N0.2 kmh N 1.1 mph1.8 kmh 30.25 in1024.4 mb 0.00 in0.0 mm 0.00 in0.0 mm 0.00 in0.0 mm
06:30 AM 57.6°F14.2°C 55.0°F12.8°C 91% 0.1 mph SE0.2 kmh SE 1.1 mph1.8 kmh 30.25 in1024.4 mb 0.00 in0.0 mm 0.00 in0.0 mm 0.00 in0.0 mm
06:35 AM 57.8°F14.3°C 55.2°F12.9°C 91% 0.1 mph E0.2 kmh E 1.7 mph2.7 kmh 30.25 in1024.4 mb 0.00 in0.0 mm 0.00 in0.0 mm 0.00 in0.0 mm
06:40 AM 58.3°F14.6°C 55.5°F13.1°C 91% 0.1 mph N0.2 kmh N 1.1 mph1.8 kmh 30.26 in1024.7 mb 0.00 in0.0 mm 0.00 in0.0 mm 0.00 in0.0 mm
06:45 AM 58.7°F14.8°C 55.7°F13.2°C 90% 0.1 mph SSW0.2 kmh SSW 1.1 mph1.8 kmh 30.26 in1024.7 mb 0.00 in0.0 mm 0.00 in0.0 mm 0.00 in0.0 mm
06:50 AM 59.0°F15.0°C 55.7°F13.2°C 89% 0.1 mph N0.2 kmh N 1.1 mph1.8 kmh 30.26 in1024.7 mb 0.00 in0.0 mm 0.00 in0.0 mm 0.00 in0.0 mm
06:55 AM 59.1°F15.1°C 55.6°F13.1°C 88% Calm Calm -- 30.26 in1024.7 mb 0.00 in0.0 mm 0.00 in0.0 mm 0.00 in0.0 mm
07:00 AM 59.3°F15.2°C 55.8°F13.2°C 88% 0.2 mph SSE0.3 kmh SSE 1.7 mph2.7 kmh 30.26 in1024.7 mb 0.00 in0.0 mm 0.00 in0.0 mm 0.00 in0.0 mm
07:05 AM 59.8°F15.4°C 55.9°F13.3°C 87% 0.2 mph E0.3 kmh E 1.1 mph1.8 kmh 30.26 in1024.7 mb 0.00 in0.0 mm 0.00 in0.0 mm 0.00 in0.0 mm
07:10 AM 60.5°F15.8°C 56.0°F13.3°C 85% 2.0 mph WSW3.2 kmh WSW 4.7 mph7.6 kmh 30.26 in1024.7 mb 0.00 in0.0 mm 0.00 in0.0 mm 0.00 in0.0 mm
07:15 AM 61.0°F16.1°C 56.1°F13.4°C 84% 0.5 mph E0.8 kmh E 2.2 mph3.5 kmh 30.26 in1024.7 mb 0.00 in0.0 mm 0.00 in0.0 mm 0.00 in0.0 mm
07:20 AM 61.5°F16.4°C 56.0°F13.3°C 82% 0.6 mph SSW1.0 kmh SSW 2.2 mph3.5 kmh 30.26 in1024.7 mb 0.00 in0.0 mm 0.00 in0.0 mm 0.00 in0.0 mm
07:25 AM 62.8°F17.1°C 56.2°F13.4°C 79% 0.9 mph NE1.4 kmh NE 2.7 mph4.3 kmh 30.26 in1024.7 mb 0.00 in0.0 mm 0.00 in0.0 mm 0.00 in0.0 mm
07:30 AM 64.0°F17.8°C 56.3°F13.5°C 76% 0.5 mph ESE0.8 kmh ESE 2.2 mph3.5 kmh 30.26 in1024.7 mb 0.00 in0.0 mm 0.00 in0.0 mm 0.00 in0.0 mm
07:35 AM 63.3°F17.4°C 55.2°F12.9°C 75% 1.1 mph SW1.8 kmh SW 2.7 mph4.3 kmh 30.26 in1024.7 mb 0.00 in0.0 mm 0.00 in0.0 mm 0.00 in0.0 mm
07:40 AM 62.9°F17.2°C 55.0°F12.8°C 76% 0.4 mph SE0.6 kmh SE 1.1 mph1.8 kmh 30.26 in1024.7 mb 0.00 in0.0 mm 0.00 in0.0 mm 0.00 in0.0 mm
07:45 AM 62.7°F17.1°C 55.1°F12.8°C 76% 1.2 mph SE1.9 kmh SE 2.7 mph4.3 kmh 30.26 in1024.7 mb 0.00 in0.0 mm 0.00 in0.0 mm 0.00 in0.0 mm
07:50 AM 63.5°F17.5°C 55.4°F13.0°C 75% 1.3 mph NW2.1 kmh NW 2.7 mph4.3 kmh 30.26 in1024.7 mb 0.00 in0.0 mm 0.00 in0.0 mm 0.00 in0.0 mm
07:55 AM 63.7°F17.6°C 55.6°F13.1°C 75% 1.2 mph SE1.9 kmh SE 2.2 mph3.5 kmh 30.26 in1024.7 mb 0.00 in0.0 mm 0.00 in0.0 mm 0.00 in0.0 mm
08:00 AM 63.3°F17.4°C 55.2°F12.9°C 75% 1.2 mph ENE1.9 kmh ENE 3.2 mph5.1 kmh 30.26 in1024.7 mb 0.00 in0.0 mm 0.00 in0.0 mm 0.00 in0.0 mm
08:05 AM 63.4°F17.4°C 55.2°F12.9°C 75% 1.5 mph SE2.4 kmh SE 4.2 mph6.8 kmh 30.27 in1025.1 mb 0.00 in0.0 mm 0.00 in0.0 mm 0.00 in0.0 mm
08:10 AM 63.7°F17.6°C 55.3°F12.9°C 74% 2.0 mph NW3.2 kmh NW 4.7 mph7.6 kmh 30.27 in1025.1 mb 0.00 in0.0 mm 0.00 in0.0 mm 0.00 in0.0 mm
08:15 AM 64.0°F17.8°C 55.1°F12.8°C 73% 2.2 mph SE3.5 kmh SE 4.2 mph6.8 kmh 30.27 in1025.1 mb 0.00 in0.0 mm 0.00 in0.0 mm 0.00 in0.0 mm
08:20 AM 64.0°F17.8°C 55.3°F12.9°C 73% 1.3 mph SSE2.1 kmh SSE 3.7 mph6.0 kmh 30.27 in1025.1 mb 0.00 in0.0 mm 0.00 in0.0 mm 0.00 in0.0 mm
08:25 AM 64.0°F17.8°C 55.6°F13.1°C 74% 0.7 mph N1.1 kmh N 2.7 mph4.3 kmh 30.27 in1025.1 mb 0.00 in0.0 mm 0.00 in0.0 mm 0.00 in0.0 mm
08:30 AM 64.2°F17.9°C 55.6°F13.1°C 74% 1.5 mph E2.4 kmh E 2.7 mph4.3 kmh 30.27 in1025.1 mb 0.00 in0.0 mm 0.00 in0.0 mm 0.00 in0.0 mm
08:35 AM 64.0°F17.8°C 55.4°F13.0°C 74% 1.0 mph SW1.6 kmh SW 2.2 mph3.5 kmh 30.27 in1025.1 mb 0.00 in0.0 mm 0.00 in0.0 mm 0.00 in0.0 mm
08:40 AM 63.8°F17.7°C 55.5°F13.1°C 74% 1.6 mph SE2.6 kmh SE 2.7 mph4.3 kmh 30.28 in1025.4 mb 0.00 in0.0 mm 0.00 in0.0 mm 0.00 in0.0 mm
08:45 AM 63.7°F17.6°C 55.6°F13.1°C 75% 1.7 mph NE2.7 kmh NE 2.7 mph4.3 kmh 30.28 in1025.4 mb 0.00 in0.0 mm 0.00 in0.0 mm 0.00 in0.0 mm
08:50 AM 64.5°F18.1°C 55.8°F13.2°C 74% 1.2 mph ESE1.9 kmh ESE 3.7 mph6.0 kmh 30.28 in1025.4 mb 0.00 in0.0 mm 0.00 in0.0 mm 0.00 in0.0 mm
08:55 AM 64.8°F18.2°C 55.8°F13.2°C 72% 1.4 mph ESE2.3 kmh ESE 4.2 mph6.8 kmh 30.28 in1025.4 mb 0.00 in0.0 mm 0.00 in0.0 mm 0.00 in0.0 mm
09:00 AM 64.7°F18.2°C 55.9°F13.3°C 73% 1.1 mph NW1.8 kmh NW 2.7 mph4.3 kmh 30.28 in1025.4 mb 0.00 in0.0 mm 0.00 in0.0 mm 0.00 in0.0 mm
09:05 AM 65.3°F18.5°C 56.2°F13.4°C 72% 1.1 mph SSE1.8 kmh SSE 2.7 mph4.3 kmh 30.28 in1025.4 mb 0.00 in0.0 mm 0.00 in0.0 mm 0.00 in0.0 mm
09:10 AM 65.6°F18.7°C 55.3°F12.9°C 69% 1.9 mph NW3.1 kmh NW 3.7 mph6.0 kmh 30.28 in1025.4 mb 0.00 in0.0 mm 0.00 in0.0 mm 0.00 in0.0 mm
09:15 AM 66.6°F19.2°C 55.0°F12.8°C 66% 2.3 mph ESE3.7 kmh ESE 5.3 mph8.5 kmh 30.28 in1025.4 mb 0.00 in0.0 mm 0.00 in0.0 mm 0.00 in0.0 mm
09:20 AM 66.1°F18.9°C 54.4°F12.4°C 66% 1.0 mph E1.6 kmh E 2.7 mph4.3 kmh 30.28 in1025.4 mb 0.00 in0.0 mm 0.00 in0.0 mm 0.00 in0.0 mm
09:25 AM 66.7°F19.3°C 55.6°F13.1°C 68% 2.0 mph SE3.2 kmh SE 4.7 mph7.6 kmh 30.28 in1025.4 mb 0.00 in0.0 mm 0.00 in0.0 mm 0.00 in0.0 mm
09:30 AM 66.3°F19.1°C 55.7°F13.2°C 69% 2.4 mph E3.9 kmh E 4.2 mph6.8 kmh 30.28 in1025.4 mb 0.00 in0.0 mm 0.00 in0.0 mm 0.00 in0.0 mm
09:35 AM 65.3°F18.5°C 54.7°F12.6°C 69% 1.7 mph ENE2.7 kmh ENE 3.7 mph6.0 kmh 30.28 in1025.4 mb 0.00 in0.0 mm 0.00 in0.0 mm 0.00 in0.0 mm
09:40 AM 65.5°F18.6°C 54.1°F12.3°C 67% 1.6 mph NW2.6 kmh NW 4.7 mph7.6 kmh 30.28 in1025.4 mb 0.00 in0.0 mm 0.00 in0.0 mm 0.00 in0.0 mm
09:45 AM 66.3°F19.1°C 54.4°F12.4°C 65% 1.8 mph E2.9 kmh E 4.7 mph7.6 kmh 30.28 in1025.4 mb 0.00 in0.0 mm 0.00 in0.0 mm 0.00 in0.0 mm
09:50 AM 66.2°F19.0°C 54.5°F12.5°C 66% 1.1 mph E1.8 kmh E 4.2 mph6.8 kmh 30.28 in1025.4 mb 0.00 in0.0 mm 0.00 in0.0 mm 0.00 in0.0 mm
09:55 AM 66.5°F19.2°C 54.3°F12.4°C 65% 1.8 mph NE2.9 kmh NE 4.7 mph7.6 kmh 30.28 in1025.4 mb 0.00 in0.0 mm 0.00 in0.0 mm 0.00 in0.0 mm
10:00 AM 65.8°F18.8°C 54.1°F12.3°C 66% 2.0 mph S3.2 kmh S 4.2 mph6.8 kmh 30.28 in1025.4 mb 0.00 in0.0 mm 0.00 in0.0 mm 0.00 in0.0 mm
10:05 AM 66.2°F19.0°C 54.1°F12.3°C 65% 1.5 mph SE2.4 kmh SE 3.7 mph6.0 kmh 30.28 in1025.4 mb 0.00 in0.0 mm 0.00 in0.0 mm 0.00 in0.0 mm
10:10 AM 66.3°F19.1°C 53.5°F11.9°C 63% 1.4 mph SE2.3 kmh SE 4.2 mph6.8 kmh 30.28 in1025.4 mb 0.00 in0.0 mm 0.00 in0.0 mm 0.00 in0.0 mm
10:15 AM 66.5°F19.2°C 53.8°F12.1°C 64% 1.6 mph NNW2.6 kmh NNW 3.2 mph5.1 kmh 30.28 in1025.4 mb 0.00 in0.0 mm 0.00 in0.0 mm 0.00 in0.0 mm
10:20 AM 65.9°F18.8°C 53.9°F12.2°C 65% 1.3 mph W2.1 kmh W 3.2 mph5.1 kmh 30.28 in1025.4 mb 0.00 in0.0 mm 0.00 in0.0 mm 0.00 in0.0 mm
10:25 AM 66.9°F19.4°C 54.0°F12.2°C 63% 1.8 mph S2.9 kmh S 3.7 mph6.0 kmh 30.28 in1025.4 mb 0.00 in0.0 mm 0.00 in0.0 mm 0.00 in0.0 mm
10:30 AM 68.7°F20.4°C 54.2°F12.3°C 60% 2.0 mph SSE3.2 kmh SSE 4.7 mph7.6 kmh 30.28 in1025.4 mb 0.00 in0.0 mm 0.00 in0.0 mm 0.00 in0.0 mm
10:35 AM 68.3°F20.2°C 53.4°F11.9°C 59% 1.8 mph ESE2.9 kmh ESE 4.7 mph7.6 kmh 30.28 in1025.4 mb 0.00 in0.0 mm 0.00 in0.0 mm 0.00 in0.0 mm
10:40 AM 69.6°F20.9°C 54.2°F12.3°C 58% 1.4 mph NNE2.3 kmh NNE 2.2 mph3.5 kmh 30.28 in1025.4 mb 0.00 in0.0 mm 0.00 in0.0 mm 0.00 in0.0 mm
10:45 AM 70.4°F21.3°C 53.7°F12.1°C 56% 2.2 mph SE3.5 kmh SE 6.3 mph10.1 kmh 30.28 in1025.4 mb 0.00 in0.0 mm 0.00 in0.0 mm 0.00 in0.0 mm
10:50 AM 70.5°F21.4°C 53.2°F11.8°C 54% 1.5 mph N2.4 kmh N 2.7 mph4.3 kmh 30.28 in1025.4 mb 0.00 in0.0 mm 0.00 in0.0 mm 0.00 in0.0 mm
10:55 AM 69.0°F20.6°C 52.7°F11.5°C 56% 2.0 mph S3.2 kmh S 4.2 mph6.8 kmh 30.28 in1025.4 mb 0.00 in0.0 mm 0.00 in0.0 mm 0.00 in0.0 mm
11:00 AM 67.9°F19.9°C 52.1°F11.2°C 57% 2.1 mph SE3.4 kmh SE 3.7 mph6.0 kmh 30.28 in1025.4 mb 0.00 in0.0 mm 0.00 in0.0 mm 0.00 in0.0 mm
11:05 AM 68.9°F20.5°C 52.6°F11.4°C 56% 2.3 mph E3.7 kmh E 4.2 mph6.8 kmh 30.28 in1025.4 mb 0.00 in0.0 mm 0.00 in0.0 mm 0.00 in0.0 mm
11:10 AM 70.8°F21.6°C 53.2°F11.8°C 54% 1.6 mph E2.6 kmh E 3.7 mph6.0 kmh 30.28 in1025.4 mb 0.00 in0.0 mm 0.00 in0.0 mm 0.00 in0.0 mm
11:15 AM 70.7°F21.5°C 52.7°F11.5°C 53% 1.8 mph SSW2.9 kmh SSW 5.3 mph8.5 kmh 30.28 in1025.4 mb 0.00 in0.0 mm 0.00 in0.0 mm 0.00 in0.0 mm
11:20 AM 69.6°F20.9°C 51.9°F11.1°C 53% 1.8 mph SE2.9 kmh SE 4.2 mph6.8 kmh 30.27 in1025.1 mb 0.00 in0.0 mm 0.00 in0.0 mm 0.00 in0.0 mm
11:25 AM 68.9°F20.5°C 52.1°F11.2°C 55% 2.3 mph ENE3.7 kmh ENE 4.7 mph7.6 kmh 30.27 in1025.1 mb 0.00 in0.0 mm 0.00 in0.0 mm 0.00 in0.0 mm
11:30 AM 69.1°F20.6°C 52.3°F11.3°C 55% 1.7 mph E2.7 kmh E 3.2 mph5.1 kmh 30.28 in1025.4 mb 0.00 in0.0 mm 0.00 in0.0 mm 0.00 in0.0 mm
11:35 AM 68.5°F20.3°C 52.3°F11.3°C 56% 1.4 mph SSE2.3 kmh SSE 3.2 mph5.1 kmh 30.28 in1025.4 mb 0.00 in0.0 mm 0.00 in0.0 mm 0.00 in0.0 mm
11:40 AM 68.0°F20.0°C 52.1°F11.2°C 57% 2.4 mph SSE3.9 kmh SSE 5.3 mph8.5 kmh 30.27 in1025.1 mb 0.00 in0.0 mm 0.00 in0.0 mm 0.00 in0.0 mm
11:45 AM 68.5°F20.3°C 52.5°F11.4°C 57% 1.9 mph W3.1 kmh W 4.7 mph7.6 kmh 30.27 in1025.1 mb 0.00 in0.0 mm 0.00 in0.0 mm 0.00 in0.0 mm
11:50 AM 70.7°F21.5°C 52.9°F11.6°C 53% 1.6 mph ESE2.6 kmh ESE 4.7 mph7.6 kmh 30.27 in1025.1 mb 0.00 in0.0 mm 0.00 in0.0 mm 0.00 in0.0 mm
11:55 AM 71.4°F21.9°C 52.8°F11.6°C 52% 1.9 mph NE3.1 kmh NE 4.7 mph7.6 kmh 30.27 in1025.1 mb 0.00 in0.0 mm 0.00 in0.0 mm 0.00 in0.0 mm
12:00 PM 71.4°F21.9°C 52.7°F11.5°C 52% 1.5 mph SSE2.4 kmh SSE 3.7 mph6.0 kmh 30.27 in1025.1 mb 0.00 in0.0 mm 0.00 in0.0 mm 0.00 in0.0 mm
12:05 PM 70.5°F21.4°C 51.5°F10.8°C 51% 2.7 mph SW4.3 kmh SW 6.3 mph10.1 kmh 30.27 in1025.1 mb 0.00 in0.0 mm 0.00 in0.0 mm 0.00 in0.0 mm
12:10 PM 69.4°F20.8°C 51.4°F10.8°C 53% 2.1 mph SE3.4 kmh SE 3.7 mph6.0 kmh 30.27 in1025.1 mb 0.00 in0.0 mm 0.00 in0.0 mm 0.00 in0.0 mm
12:15 PM 69.9°F21.1°C 51.0°F10.6°C 51% 2.0 mph NW3.2 kmh NW 3.2 mph5.1 kmh 30.27 in1025.1 mb 0.00 in0.0 mm 0.00 in0.0 mm 0.00 in0.0 mm
12:20 PM 68.9°F20.5°C 50.4°F10.2°C 52% 1.6 mph SE2.6 kmh SE 3.7 mph6.0 kmh 30.27 in1025.1 mb 0.00 in0.0 mm 0.00 in0.0 mm 0.00 in0.0 mm
12:25 PM 71.4°F21.9°C 51.0°F10.6°C 49% 2.3 mph SSE3.7 kmh SSE 3.7 mph6.0 kmh 30.27 in1025.1 mb 0.00 in0.0 mm 0.00 in0.0 mm 0.00 in0.0 mm
12:30 PM 72.7°F22.6°C 51.7°F10.9°C 48% 2.2 mph SE3.5 kmh SE 4.2 mph6.8 kmh 30.27 in1025.1 mb 0.00 in0.0 mm 0.00 in0.0 mm 0.00 in0.0 mm
12:35 PM 71.3°F21.8°C 51.5°F10.8°C 50% 2.0 mph SW3.2 kmh SW 3.7 mph6.0 kmh 30.27 in1025.1 mb 0.00 in0.0 mm 0.00 in0.0 mm 0.00 in0.0 mm
12:40 PM 69.9°F21.1°C 51.1°F10.6°C 51% 2.5 mph ENE4.0 kmh ENE 6.3 mph10.1 kmh 30.27 in1025.1 mb 0.00 in0.0 mm 0.00 in0.0 mm 0.00 in0.0 mm
12:45 PM 69.1°F20.6°C 50.2°F10.1°C 51% 2.3 mph S3.7 kmh S 5.3 mph8.5 kmh 30.27 in1025.1 mb 0.00 in0.0 mm 0.00 in0.0 mm 0.00 in0.0 mm
12:50 PM 70.8°F21.6°C 51.2°F10.7°C 50% 1.7 mph SE2.7 kmh SE 3.2 mph5.1 kmh 30.27 in1025.1 mb 0.00 in0.0 mm 0.00 in0.0 mm 0.00 in0.0 mm
12:55 PM 70.9°F21.6°C 49.9°F9.9°C 48% 2.6 mph ENE4.2 kmh ENE 7.8 mph12.6 kmh 30.27 in1025.1 mb 0.00 in0.0 mm 0.00 in0.0 mm 0.00 in0.0 mm
01:00 PM 69.1°F20.6°C 49.7°F9.8°C 50% 2.5 mph N4.0 kmh N 4.7 mph7.6 kmh 30.27 in1025.1 mb 0.00 in0.0 mm 0.00 in0.0 mm 0.00 in0.0 mm
01:05 PM 70.4°F21.3°C 50.6°F10.3°C 50% 1.3 mph ESE2.1 kmh ESE 2.7 mph4.3 kmh 30.27 in1025.1 mb 0.00 in0.0 mm 0.00 in0.0 mm 0.00 in0.0 mm
01:10 PM 70.4°F21.3°C 50.7°F10.4°C 50% 2.3 mph E3.7 kmh E 5.8 mph9.3 kmh 30.27 in1025.1 mb 0.00 in0.0 mm 0.00 in0.0 mm 0.00 in0.0 mm
01:15 PM 71.4°F21.9°C 50.8°F10.4°C 48% 2.3 mph W3.7 kmh W 4.2 mph6.8 kmh 30.27 in1025.1 mb 0.00 in0.0 mm 0.00 in0.0 mm 0.00 in0.0 mm
01:20 PM 72.2°F22.3°C 50.5°F10.3°C 47% 1.7 mph E2.7 kmh E 3.7 mph6.0 kmh 30.27 in1025.1 mb 0.00 in0.0 mm 0.00 in0.0 mm 0.00 in0.0 mm
01:25 PM 73.4°F23.0°C 51.0°F10.6°C 45% 2.3 mph SW3.7 kmh SW 4.7 mph7.6 kmh 30.27 in1025.1 mb 0.00 in0.0 mm 0.00 in0.0 mm 0.00 in0.0 mm
01:30 PM 72.4°F22.4°C 50.8°F10.4°C 47% 2.6 mph SE4.2 kmh SE 4.7 mph7.6 kmh 30.27 in1025.1 mb 0.00 in0.0 mm 0.00 in0.0 mm 0.00 in0.0 mm
01:35 PM 72.2°F22.3°C 50.6°F10.3°C 47% 1.7 mph NNW2.7 kmh NNW 4.7 mph7.6 kmh 30.27 in1025.1 mb 0.00 in0.0 mm 0.00 in0.0 mm 0.00 in0.0 mm
01:40 PM 72.4°F22.4°C 50.6°F10.3°C 46% 3.2 mph W5.1 kmh W 5.3 mph8.5 kmh 30.27 in1025.1 mb 0.00 in0.0 mm 0.00 in0.0 mm 0.00 in0.0 mm
01:45 PM 70.4°F21.3°C 50.4°F10.2°C 49% 2.4 mph SE3.9 kmh SE 7.3 mph11.7 kmh 30.27 in1025.1 mb 0.00 in0.0 mm 0.00 in0.0 mm 0.00 in0.0 mm
01:50 PM 72.2°F22.3°C 51.5°F10.8°C 48% 1.9 mph SE3.1 kmh SE 4.2 mph6.8 kmh 30.27 in1025.1 mb 0.00 in0.0 mm 0.00 in0.0 mm 0.00 in0.0 mm
01:55 PM 71.0°F21.7°C 51.0°F10.6°C 49% 1.7 mph SW2.7 kmh SW 3.7 mph6.0 kmh 30.27 in1025.1 mb 0.00 in0.0 mm 0.00 in0.0 mm 0.00 in0.0 mm
02:00 PM 69.8°F21.0°C 50.4°F10.2°C 50% 1.8 mph S2.9 kmh S 3.2 mph5.1 kmh 30.27 in1025.1 mb 0.00 in0.0 mm 0.00 in0.0 mm 0.00 in0.0 mm
02:05 PM 69.4°F20.8°C 50.4°F10.2°C 51% 2.3 mph S3.7 kmh S 4.2 mph6.8 kmh 30.27 in1025.1 mb 0.00 in0.0 mm 0.00 in0.0 mm 0.00 in0.0 mm
02:10 PM 69.1°F20.6°C 50.2°F10.1°C 51% 1.6 mph SSE2.6 kmh SSE 3.2 mph5.1 kmh 30.27 in1025.1 mb 0.00 in0.0 mm 0.00 in0.0 mm 0.00 in0.0 mm
02:15 PM 70.0°F21.1°C 50.2°F10.1°C 49% 2.3 mph ESE3.7 kmh ESE 3.7 mph6.0 kmh 30.28 in1025.4 mb 0.00 in0.0 mm 0.00 in0.0 mm 0.00 in0.0 mm
02:20 PM 70.9°F21.6°C 50.7°F10.4°C 49% 1.5 mph S2.4 kmh S 4.7 mph7.6 kmh 30.28 in1025.4 mb 0.00 in0.0 mm 0.00 in0.0 mm 0.00 in0.0 mm
02:25 PM 70.9°F21.6°C 50.6°F10.3°C 49% 2.2 mph ENE3.5 kmh ENE 4.7 mph7.6 kmh 30.28 in1025.4 mb 0.00 in0.0 mm 0.00 in0.0 mm 0.00 in0.0 mm
02:30 PM 68.8°F20.4°C 50.2°F10.1°C 52% 2.1 mph SW3.4 kmh SW 4.7 mph7.6 kmh 30.28 in1025.4 mb 0.00 in0.0 mm 0.00 in0.0 mm 0.00 in0.0 mm
02:35 PM 69.6°F20.9°C 50.3°F10.2°C 50% 1.3 mph E2.1 kmh E 3.2 mph5.1 kmh 30.28 in1025.4 mb 0.00 in0.0 mm 0.00 in0.0 mm 0.00 in0.0 mm
02:40 PM 70.6°F21.4°C 50.5°F10.3°C 49% 2.3 mph N3.7 kmh N 4.7 mph7.6 kmh 30.28 in1025.4 mb 0.00 in0.0 mm 0.00 in0.0 mm 0.00 in0.0 mm
02:45 PM 70.6°F21.4°C 50.4°F10.2°C 49% 2.6 mph NNE4.2 kmh NNE 4.7 mph7.6 kmh 30.28 in1025.4 mb 0.00 in0.0 mm 0.00 in0.0 mm 0.00 in0.0 mm
02:50 PM 71.1°F21.7°C 50.8°F10.4°C 49% 1.4 mph SSW2.3 kmh SSW 3.7 mph6.0 kmh 30.28 in1025.4 mb 0.00 in0.0 mm 0.00 in0.0 mm 0.00 in0.0 mm
02:55 PM 70.6°F21.4°C 50.2°F10.1°C 48% 2.9 mph E4.7 kmh E 4.2 mph6.8 kmh 30.28 in1025.4 mb 0.00 in0.0 mm 0.00 in0.0 mm 0.00 in0.0 mm
03:00 PM 69.6°F20.9°C 50.0°F10.0°C 50% 1.2 mph W1.9 kmh W 3.7 mph6.0 kmh 30.28 in1025.4 mb 0.00 in0.0 mm 0.00 in0.0 mm 0.00 in0.0 mm
03:05 PM 69.9°F21.1°C 50.7°F10.4°C 50% 0.9 mph NE1.4 kmh NE 3.7 mph6.0 kmh 30.28 in1025.4 mb 0.00 in0.0 mm 0.00 in0.0 mm 0.00 in0.0 mm
03:10 PM 70.0°F21.1°C 50.0°F10.0°C 49% 1.1 mph S1.8 kmh S 2.7 mph4.3 kmh 30.28 in1025.4 mb 0.00 in0.0 mm 0.00 in0.0 mm 0.00 in0.0 mm
03:15 PM 69.8°F21.0°C 49.8°F9.9°C 49% 1.7 mph ESE2.7 kmh ESE 4.2 mph6.8 kmh 30.28 in1025.4 mb 0.00 in0.0 mm 0.00 in0.0 mm 0.00 in0.0 mm
03:20 PM 69.6°F20.9°C 49.6°F9.8°C 49% 2.6 mph SE4.2 kmh SE 4.2 mph6.8 kmh 30.28 in1025.4 mb 0.00 in0.0 mm 0.00 in0.0 mm 0.00 in0.0 mm
03:25 PM 69.6°F20.9°C 49.5°F9.7°C 49% 2.0 mph NE3.2 kmh NE 4.2 mph6.8 kmh 30.28 in1025.4 mb 0.00 in0.0 mm 0.00 in0.0 mm 0.00 in0.0 mm
03:30 PM 68.4°F20.2°C 49.0°F9.4°C 50% 1.5 mph SSW2.4 kmh SSW 5.3 mph8.5 kmh 30.28 in1025.4 mb 0.00 in0.0 mm 0.00 in0.0 mm 0.00 in0.0 mm
03:35 PM 69.2°F20.7°C 49.5°F9.7°C 50% 1.8 mph NE2.9 kmh NE 4.2 mph6.8 kmh 30.28 in1025.4 mb 0.00 in0.0 mm 0.00 in0.0 mm 0.00 in0.0 mm
03:40 PM 68.9°F20.5°C 48.9°F9.4°C 49% 2.2 mph SE3.5 kmh SE 4.2 mph6.8 kmh 30.28 in1025.4 mb 0.00 in0.0 mm 0.00 in0.0 mm 0.00 in0.0 mm
03:45 PM 69.0°F20.6°C 49.0°F9.4°C 49% 1.5 mph E2.4 kmh E 2.7 mph4.3 kmh 30.28 in1025.4 mb 0.00 in0.0 mm 0.00 in0.0 mm 0.00 in0.0 mm
03:50 PM 68.7°F20.4°C 48.8°F9.3°C 49% 1.3 mph ESE2.1 kmh ESE 2.7 mph4.3 kmh 30.28 in1025.4 mb 0.00 in0.0 mm 0.00 in0.0 mm 0.00 in0.0 mm
03:55 PM 68.5°F20.3°C 48.5°F9.2°C 49% 1.9 mph SSW3.1 kmh SSW 3.2 mph5.1 kmh 30.28 in1025.4 mb 0.00 in0.0 mm 0.00 in0.0 mm 0.00 in0.0 mm
04:00 PM 68.2°F20.1°C 48.6°F9.2°C 50% 1.2 mph E1.9 kmh E 2.7 mph4.3 kmh 30.28 in1025.4 mb 0.00 in0.0 mm 0.00 in0.0 mm 0.00 in0.0 mm
04:05 PM 68.3°F20.2°C 48.8°F9.3°C 50% 2.0 mph NE3.2 kmh NE 4.7 mph7.6 kmh 30.28 in1025.4 mb 0.00 in0.0 mm 0.00 in0.0 mm 0.00 in0.0 mm
04:10 PM 67.9°F19.9°C 48.3°F9.1°C 50% 1.4 mph WSW2.3 kmh WSW 4.2 mph6.8 kmh 30.28 in1025.4 mb 0.00 in0.0 mm 0.00 in0.0 mm 0.00 in0.0 mm
04:15 PM 67.9°F19.9°C 48.6°F9.2°C 50% 1.1 mph N1.8 kmh N 2.7 mph4.3 kmh 30.28 in1025.4 mb 0.00 in0.0 mm 0.00 in0.0 mm 0.00 in0.0 mm
04:20 PM 67.8°F19.9°C 48.5°F9.2°C 50% 2.1 mph E3.4 kmh E 4.7 mph7.6 kmh 30.28 in1025.4 mb 0.00 in0.0 mm 0.00 in0.0 mm 0.00 in0.0 mm
04:25 PM 67.5°F19.7°C 48.2°F9.0°C 50% 1.5 mph SW2.4 kmh SW 4.7 mph7.6 kmh 30.28 in1025.4 mb 0.00 in0.0 mm 0.00 in0.0 mm 0.00 in0.0 mm
04:30 PM 67.1°F19.5°C 48.0°F8.9°C 50% 1.5 mph SSE2.4 kmh SSE 2.7 mph4.3 kmh 30.28 in1025.4 mb 0.00 in0.0 mm 0.00 in0.0 mm 0.00 in0.0 mm
04:35 PM 67.2°F19.6°C 48.5°F9.2°C 51% 2.1 mph ENE3.4 kmh ENE 4.2 mph6.8 kmh 30.28 in1025.4 mb 0.00 in0.0 mm 0.00 in0.0 mm 0.00 in0.0 mm
04:40 PM 67.2°F19.6°C 48.5°F9.2°C 51% 1.7 mph SE2.7 kmh SE 3.2 mph5.1 kmh 30.28 in1025.4 mb 0.00 in0.0 mm 0.00 in0.0 mm 0.00 in0.0 mm
04:45 PM 67.2°F19.6°C 48.5°F9.2°C 51% 1.0 mph SW1.6 kmh SW 3.2 mph5.1 kmh 30.28 in1025.4 mb 0.00 in0.0 mm 0.00 in0.0 mm 0.00 in0.0 mm
04:50 PM 67.4°F19.7°C 48.1°F8.9°C 50% 1.9 mph SSW3.1 kmh SSW 5.8 mph9.3 kmh 30.28 in1025.4 mb 0.00 in0.0 mm 0.00 in0.0 mm 0.00 in0.0 mm
04:55 PM 66.9°F19.4°C 47.7°F8.7°C 50% 1.3 mph E2.1 kmh E 3.7 mph6.0 kmh 30.28 in1025.4 mb 0.00 in0.0 mm 0.00 in0.0 mm 0.00 in0.0 mm
05:00 PM 67.1°F19.5°C 47.8°F8.8°C 50% 1.4 mph SSE2.3 kmh SSE 3.7 mph6.0 kmh 30.28 in1025.4 mb 0.00 in0.0 mm 0.00 in0.0 mm 0.00 in0.0 mm
05:05 PM 67.3°F19.6°C 48.0°F8.9°C 50% 1.1 mph S1.8 kmh S 3.2 mph5.1 kmh 30.29 in1025.7 mb 0.00 in0.0 mm 0.00 in0.0 mm 0.00 in0.0 mm
05:10 PM 66.8°F19.3°C 47.6°F8.7°C 50% 1.5 mph S2.4 kmh S 3.7 mph6.0 kmh 30.29 in1025.7 mb 0.00 in0.0 mm 0.00 in0.0 mm 0.00 in0.0 mm
05:15 PM 66.3°F19.1°C 47.4°F8.6°C 50% 1.3 mph SW2.1 kmh SW 3.2 mph5.1 kmh 30.29 in1025.7 mb 0.00 in0.0 mm 0.00 in0.0 mm 0.00 in0.0 mm
05:20 PM 65.9°F18.8°C 47.6°F8.7°C 52% 2.3 mph SE3.7 kmh SE 3.2 mph5.1 kmh 30.29 in1025.7 mb 0.00 in0.0 mm 0.00 in0.0 mm 0.00 in0.0 mm
05:25 PM 65.1°F18.4°C 47.1°F8.4°C 52% 2.0 mph SSE3.2 kmh SSE 4.2 mph6.8 kmh 30.29 in1025.7 mb 0.00 in0.0 mm 0.00 in0.0 mm 0.00 in0.0 mm
05:30 PM 65.0°F18.3°C 47.0°F8.3°C 52% 1.9 mph SSW3.1 kmh SSW 3.7 mph6.0 kmh 30.29 in1025.7 mb 0.00 in0.0 mm 0.00 in0.0 mm 0.00 in0.0 mm
05:35 PM 64.7°F18.2°C 46.7°F8.2°C 52% 2.2 mph SE3.5 kmh SE 4.7 mph7.6 kmh 30.29 in1025.7 mb 0.00 in0.0 mm 0.00 in0.0 mm 0.00 in0.0 mm
05:40 PM 64.5°F18.1°C 46.5°F8.1°C 52% 0.8 mph E1.3 kmh E 2.7 mph4.3 kmh 30.28 in1025.4 mb 0.00 in0.0 mm 0.00 in0.0 mm 0.00 in0.0 mm
05:45 PM 64.1°F17.8°C 46.3°F7.9°C 52% 1.0 mph SW1.6 kmh SW 4.2 mph6.8 kmh 30.28 in1025.4 mb 0.00 in0.0 mm 0.00 in0.0 mm 0.00 in0.0 mm
05:50 PM 63.9°F17.7°C 46.4°F8.0°C 53% 1.0 mph S1.6 kmh S 2.2 mph3.5 kmh 30.28 in1025.4 mb 0.00 in0.0 mm 0.00 in0.0 mm 0.00 in0.0 mm
05:55 PM 63.6°F17.6°C 46.6°F8.1°C 54% 1.7 mph SSE2.7 kmh SSE 3.7 mph6.0 kmh 30.28 in1025.4 mb 0.00 in0.0 mm 0.00 in0.0 mm 0.00 in0.0 mm
06:00 PM 63.2°F17.3°C 46.3°F7.9°C 54% 2.0 mph S3.2 kmh S 4.7 mph7.6 kmh 30.28 in1025.4 mb 0.00 in0.0 mm 0.00 in0.0 mm 0.00 in0.0 mm
06:05 PM 62.9°F17.2°C 46.2°F7.9°C 55% 1.3 mph NNE2.1 kmh NNE 2.7 mph4.3 kmh 30.28 in1025.4 mb 0.00 in0.0 mm 0.00 in0.0 mm 0.00 in0.0 mm
06:10 PM 62.7°F17.1°C 46.3°F7.9°C 55% 1.2 mph S1.9 kmh S 4.2 mph6.8 kmh 30.28 in1025.4 mb 0.00 in0.0 mm 0.00 in0.0 mm 0.00 in0.0 mm
06:15 PM 62.4°F16.9°C 46.0°F7.8°C 55% 1.3 mph E2.1 kmh E 3.7 mph6.0 kmh 30.28 in1025.4 mb 0.00 in0.0 mm 0.00 in0.0 mm 0.00 in0.0 mm
06:20 PM 62.2°F16.8°C 46.3°F7.9°C 56% 0.7 mph SW1.1 kmh SW 2.7 mph4.3 kmh 30.28 in1025.4 mb 0.00 in0.0 mm 0.00 in0.0 mm 0.00 in0.0 mm
06:25 PM 61.9°F16.6°C 46.1°F7.8°C 56% 0.8 mph SW1.3 kmh SW 2.2 mph3.5 kmh 30.29 in1025.7 mb 0.00 in0.0 mm 0.00 in0.0 mm 0.00 in0.0 mm
06:30 PM 61.6°F16.4°C 46.1°F7.8°C 57% 0.7 mph SSE1.1 kmh SSE 2.2 mph3.5 kmh 30.29 in1025.7 mb 0.00 in0.0 mm 0.00 in0.0 mm 0.00 in0.0 mm
06:35 PM 61.4°F16.3°C 46.0°F7.8°C 57% 0.5 mph SE0.8 kmh SE 2.2 mph3.5 kmh 30.29 in1025.7 mb 0.00 in0.0 mm 0.00 in0.0 mm 0.00 in0.0 mm
06:40 PM 61.3°F16.3°C 46.4°F8.0°C 58% 1.1 mph ESE1.8 kmh ESE 3.2 mph5.1 kmh 30.29 in1025.7 mb 0.00 in0.0 mm 0.00 in0.0 mm 0.00 in0.0 mm
06:45 PM 61.2°F16.2°C 46.3°F7.9°C 58% 0.7 mph SW1.1 kmh SW 2.2 mph3.5 kmh 30.29 in1025.7 mb 0.00 in0.0 mm 0.00 in0.0 mm 0.00 in0.0 mm
06:50 PM 60.9°F16.1°C 46.0°F7.8°C 58% 0.9 mph SSE1.4 kmh SSE 3.7 mph6.0 kmh 30.30 in1026.1 mb 0.00 in0.0 mm 0.00 in0.0 mm 0.00 in0.0 mm
06:55 PM 60.8°F16.0°C 45.9°F7.7°C 58% 0.3 mph N0.5 kmh N 2.2 mph3.5 kmh 30.30 in1026.1 mb 0.00 in0.0 mm 0.00 in0.0 mm 0.00 in0.0 mm
07:00 PM 60.6°F15.9°C 45.9°F7.7°C 58% 0.5 mph WSW0.8 kmh WSW 2.2 mph3.5 kmh 30.30 in1026.1 mb 0.00 in0.0 mm 0.00 in0.0 mm 0.00 in0.0 mm
07:05 PM 60.6°F15.9°C 46.1°F7.8°C 59% 0.8 mph SSW1.3 kmh SSW 3.7 mph6.0 kmh 30.30 in1026.1 mb 0.00 in0.0 mm 0.00 in0.0 mm 0.00 in0.0 mm
07:10 PM 60.4°F15.8°C 46.0°F7.8°C 59% 0.4 mph E0.6 kmh E 2.2 mph3.5 kmh 30.30 in1026.1 mb 0.00 in0.0 mm 0.00 in0.0 mm 0.00 in0.0 mm
07:15 PM 60.3°F15.7°C 45.9°F7.7°C 59% 0.6 mph S1.0 kmh S 1.7 mph2.7 kmh 30.30 in1026.1 mb 0.00 in0.0 mm 0.00 in0.0 mm 0.00 in0.0 mm
07:20 PM 60.1°F15.6°C 46.1°F7.8°C 60% 0.1 mph N0.2 kmh N 1.1 mph1.8 kmh 30.30 in1026.1 mb 0.00 in0.0 mm 0.00 in0.0 mm 0.00 in0.0 mm
07:25 PM 59.7°F15.4°C 46.0°F7.8°C 60% 0.6 mph SE1.0 kmh SE 2.2 mph3.5 kmh 30.30 in1026.1 mb 0.00 in0.0 mm 0.00 in0.0 mm 0.00 in0.0 mm
07:30 PM 59.5°F15.3°C 46.0°F7.8°C 61% Calm Calm -- 30.30 in1026.1 mb 0.00 in0.0 mm 0.00 in0.0 mm 0.00 in0.0 mm
07:35 PM 59.3°F15.2°C 46.2°F7.9°C 62% 0.2 mph SSW0.3 kmh SSW 1.7 mph2.7 kmh 30.30 in1026.1 mb 0.00 in0.0 mm 0.00 in0.0 mm 0.00 in0.0 mm
07:40 PM 59.2°F15.1°C 46.2°F7.9°C 62% 0.2 mph ESE0.3 kmh ESE 1.7 mph2.7 kmh 30.31 in1026.4 mb 0.00 in0.0 mm 0.00 in0.0 mm 0.00 in0.0 mm
07:45 PM 59.2°F15.1°C 46.2°F7.9°C 62% 0.1 mph N0.2 kmh N 1.1 mph1.8 kmh 30.31 in1026.4 mb 0.00 in0.0 mm 0.00 in0.0 mm 0.00 in0.0 mm
07:50 PM 59.0°F15.0°C 46.2°F7.9°C 62% 0.2 mph ESE0.3 kmh ESE 2.7 mph4.3 kmh 30.31 in1026.4 mb 0.00 in0.0 mm 0.00 in0.0 mm 0.00 in0.0 mm
07:55 PM 58.8°F14.9°C 46.2°F7.9°C 63% 0.1 mph SSE0.2 kmh SSE 1.1 mph1.8 kmh 30.31 in1026.4 mb 0.00 in0.0 mm 0.00 in0.0 mm 0.00 in0.0 mm
08:00 PM 58.6°F14.8°C 46.5°F8.1°C 64% 0.4 mph SE0.6 kmh SE 2.7 mph4.3 kmh 30.31 in1026.4 mb 0.00 in0.0 mm 0.00 in0.0 mm 0.00 in0.0 mm
08:05 PM 58.6°F14.8°C 46.5°F8.1°C 64% 0.5 mph WSW0.8 kmh WSW 1.7 mph2.7 kmh 30.32 in1026.8 mb 0.00 in0.0 mm 0.00 in0.0 mm 0.00 in0.0 mm
08:10 PM 58.5°F14.7°C 46.4°F8.0°C 64% 0.7 mph SE1.1 kmh SE 2.2 mph3.5 kmh 30.32 in1026.8 mb 0.00 in0.0 mm 0.00 in0.0 mm 0.00 in0.0 mm
08:15 PM 58.5°F14.7°C 46.3°F7.9°C 64% Calm Calm -- 30.32 in1026.8 mb 0.00 in0.0 mm 0.00 in0.0 mm 0.00 in0.0 mm
08:20 PM 58.1°F14.5°C 46.0°F7.8°C 64% 0.1 mph ESE0.2 kmh ESE 1.1 mph1.8 kmh 30.33 in1027.1 mb 0.00 in0.0 mm 0.00 in0.0 mm 0.00 in0.0 mm
08:25 PM 58.0°F14.4°C 46.1°F7.8°C 65% 0.5 mph W0.8 kmh W 1.7 mph2.7 kmh 30.33 in1027.1 mb 0.00 in0.0 mm 0.00 in0.0 mm 0.00 in0.0 mm
08:30 PM 58.3°F14.6°C 46.2°F7.9°C 64% 0.6 mph SSW1.0 kmh SSW 3.2 mph5.1 kmh 30.33 in1027.1 mb 0.00 in0.0 mm 0.00 in0.0 mm 0.00 in0.0 mm
08:35 PM 58.2°F14.6°C 46.0°F7.8°C 64% 0.3 mph SW0.5 kmh SW 1.1 mph1.8 kmh 30.33 in1027.1 mb 0.00 in0.0 mm 0.00 in0.0 mm 0.00 in0.0 mm
08:40 PM 57.9°F14.4°C 45.8°F7.7°C 64% 0.2 mph W0.3 kmh W 1.7 mph2.7 kmh 30.33 in1027.1 mb 0.00 in0.0 mm 0.00 in0.0 mm 0.00 in0.0 mm
08:45 PM 57.9°F14.4°C 45.8°F7.7°C 64% 0.4 mph S0.6 kmh S 1.7 mph2.7 kmh 30.33 in1027.1 mb 0.00 in0.0 mm 0.00 in0.0 mm 0.00 in0.0 mm
08:50 PM 57.7°F14.3°C 45.6°F7.6°C 64% 0.1 mph N0.2 kmh N 1.7 mph2.7 kmh 30.33 in1027.1 mb 0.00 in0.0 mm 0.00 in0.0 mm 0.00 in0.0 mm
08:55 PM 57.6°F14.2°C 45.9°F7.7°C 65% 0.4 mph NNW0.6 kmh NNW 1.7 mph2.7 kmh 30.33 in1027.1 mb 0.00 in0.0 mm 0.00 in0.0 mm 0.00 in0.0 mm
09:00 PM 57.4°F14.1°C 45.7°F7.6°C 65% 0.4 mph E0.6 kmh E 2.2 mph3.5 kmh 30.33 in1027.1 mb 0.00 in0.0 mm 0.00 in0.0 mm 0.00 in0.0 mm
09:05 PM 57.3°F14.1°C 45.7°F7.6°C 65% 0.5 mph SE0.8 kmh SE 1.1 mph1.8 kmh 30.33 in1027.1 mb 0.00 in0.0 mm 0.00 in0.0 mm 0.00 in0.0 mm
09:10 PM 57.3°F14.1°C 45.6°F7.6°C 65% 0.3 mph S0.5 kmh S 1.7 mph2.7 kmh 30.33 in1027.1 mb 0.00 in0.0 mm 0.00 in0.0 mm 0.00 in0.0 mm
09:15 PM 57.2°F14.0°C 45.5°F7.5°C 65% 0.1 mph SSW0.2 kmh SSW 1.1 mph1.8 kmh 30.34 in1027.4 mb 0.00 in0.0 mm 0.00 in0.0 mm 0.00 in0.0 mm
09:20 PM 57.1°F13.9°C 45.4°F7.4°C 65% Calm Calm -- 30.34 in1027.4 mb 0.00 in0.0 mm 0.00 in0.0 mm 0.00 in0.0 mm
09:25 PM 56.7°F13.7°C 45.2°F7.3°C 65% 0.1 mph SE0.2 kmh SE 1.1 mph1.8 kmh 30.34 in1027.4 mb 0.00 in0.0 mm 0.00 in0.0 mm 0.00 in0.0 mm
09:30 PM 56.5°F13.6°C 45.3°F7.4°C 66% 0.1 mph N0.2 kmh N 1.1 mph1.8 kmh 30.34 in1027.4 mb 0.00 in0.0 mm 0.00 in0.0 mm 0.00 in0.0 mm
09:35 PM 56.3°F13.5°C 45.1°F7.3°C 66% 0.4 mph NE0.6 kmh NE 2.7 mph4.3 kmh 30.34 in1027.4 mb 0.00 in0.0 mm 0.00 in0.0 mm 0.00 in0.0 mm
09:40 PM 56.3°F13.5°C 45.1°F7.3°C 66% 0.3 mph NW0.5 kmh NW 2.2 mph3.5 kmh 30.34 in1027.4 mb 0.00 in0.0 mm 0.00 in0.0 mm 0.00 in0.0 mm
09:45 PM 56.5°F13.6°C 45.3°F7.4°C 66% 1.1 mph E1.8 kmh E 2.2 mph3.5 kmh 30.34 in1027.4 mb 0.00 in0.0 mm 0.00 in0.0 mm 0.00 in0.0 mm
09:50 PM 56.6°F13.7°C 45.3°F7.4°C 66% 0.5 mph NE0.8 kmh NE 1.7 mph2.7 kmh 30.34 in1027.4 mb 0.00 in0.0 mm 0.00 in0.0 mm 0.00 in0.0 mm
09:55 PM 56.5°F13.6°C 45.2°F7.3°C 66% 0.4 mph WNW0.6 kmh WNW 1.7 mph2.7 kmh 30.34 in1027.4 mb 0.00 in0.0 mm 0.00 in0.0 mm 0.00 in0.0 mm
10:00 PM 56.3°F13.5°C 45.4°F7.4°C 67% 1.1 mph ESE1.8 kmh ESE 3.2 mph5.1 kmh 30.34 in1027.4 mb 0.00 in0.0 mm 0.00 in0.0 mm 0.00 in0.0 mm
10:05 PM 56.1°F13.4°C 45.3°F7.4°C 67% 0.2 mph ESE0.3 kmh ESE 1.7 mph2.7 kmh 30.34 in1027.4 mb 0.00 in0.0 mm 0.00 in0.0 mm 0.00 in0.0 mm
10:10 PM 55.9°F13.3°C 45.2°F7.3°C 67% 0.1 mph N0.2 kmh N 1.1 mph1.8 kmh 30.34 in1027.4 mb 0.00 in0.0 mm 0.00 in0.0 mm 0.00 in0.0 mm
10:15 PM 55.8°F13.2°C 45.4°F7.4°C 68% 0.2 mph S0.3 kmh S 1.7 mph2.7 kmh 30.34 in1027.4 mb 0.00 in0.0 mm 0.00 in0.0 mm 0.00 in0.0 mm
10:20 PM 55.7°F13.2°C 45.5°F7.5°C 68% 1.1 mph E1.8 kmh E 3.7 mph6.0 kmh 30.34 in1027.4 mb 0.00 in0.0 mm 0.00 in0.0 mm 0.00 in0.0 mm
10:25 PM 55.7°F13.2°C 45.7°F7.6°C 69% 1.1 mph S1.8 kmh S 2.2 mph3.5 kmh 30.34 in1027.4 mb 0.00 in0.0 mm 0.00 in0.0 mm 0.00 in0.0 mm
10:30 PM 55.8°F13.2°C 45.8°F7.7°C 69% 0.5 mph SSE0.8 kmh SSE 1.7 mph2.7 kmh 30.35 in1027.8 mb 0.00 in0.0 mm 0.00 in0.0 mm 0.00 in0.0 mm
10:35 PM 55.8°F13.2°C 45.8°F7.7°C 69% 1.5 mph ENE2.4 kmh ENE 5.3 mph8.5 kmh 30.35 in1027.8 mb 0.00 in0.0 mm 0.00 in0.0 mm 0.00 in0.0 mm
10:40 PM 55.8°F13.2°C 45.5°F7.5°C 68% 1.3 mph NNW2.1 kmh NNW 3.7 mph6.0 kmh 30.35 in1027.8 mb 0.00 in0.0 mm 0.00 in0.0 mm 0.00 in0.0 mm
10:45 PM 55.8°F13.2°C 45.4°F7.4°C 68% 0.3 mph SSW0.5 kmh SSW 1.7 mph2.7 kmh 30.35 in1027.8 mb 0.00 in0.0 mm 0.00 in0.0 mm 0.00 in0.0 mm
10:50 PM 55.8°F13.2°C 45.4°F7.4°C 68% 1.0 mph E1.6 kmh E 3.2 mph5.1 kmh 30.35 in1027.8 mb 0.00 in0.0 mm 0.00 in0.0 mm 0.00 in0.0 mm
10:55 PM 55.6°F13.1°C 45.2°F7.3°C 68% 1.3 mph SE2.1 kmh SE 4.2 mph6.8 kmh 30.35 in1027.8 mb 0.00 in0.0 mm 0.00 in0.0 mm 0.00 in0.0 mm
11:00 PM 55.6°F13.1°C 45.2°F7.3°C 68% 0.9 mph NE1.4 kmh NE 3.2 mph5.1 kmh 30.35 in1027.8 mb 0.00 in0.0 mm 0.00 in0.0 mm 0.00 in0.0 mm
11:05 PM 55.8°F13.2°C 45.0°F7.2°C 67% 1.5 mph ENE2.4 kmh ENE 3.7 mph6.0 kmh 30.36 in1028.1 mb 0.00 in0.0 mm 0.00 in0.0 mm 0.00 in0.0 mm
11:10 PM 55.6°F13.1°C 44.8°F7.1°C 67% 0.8 mph SW1.3 kmh SW 2.2 mph3.5 kmh 30.36 in1028.1 mb 0.00 in0.0 mm 0.00 in0.0 mm 0.00 in0.0 mm
11:15 PM 55.4°F13.0°C 44.6°F7.0°C 67% 1.1 mph W1.8 kmh W 2.7 mph4.3 kmh 30.36 in1028.1 mb 0.00 in0.0 mm 0.00 in0.0 mm 0.00 in0.0 mm
11:20 PM 55.4°F13.0°C 44.7°F7.1°C 67% 1.0 mph W1.6 kmh W 2.7 mph4.3 kmh 30.36 in1028.1 mb 0.00 in0.0 mm 0.00 in0.0 mm 0.00 in0.0 mm
11:25 PM 55.2°F12.9°C 44.5°F6.9°C 67% 0.7 mph SSW1.1 kmh SSW 2.2 mph3.5 kmh 30.36 in1028.1 mb 0.00 in0.0 mm 0.00 in0.0 mm 0.00 in0.0 mm
11:30 PM 55.2°F12.9°C 44.4°F6.9°C 67% 0.7 mph SSW1.1 kmh SSW 2.2 mph3.5 kmh 30.36 in1028.1 mb 0.00 in0.0 mm 0.00 in0.0 mm 0.00 in0.0 mm
11:35 PM 55.0°F12.8°C 44.2°F6.8°C 67% 0.8 mph N1.3 kmh N 2.2 mph3.5 kmh 30.36 in1028.1 mb 0.00 in0.0 mm 0.00 in0.0 mm 0.00 in0.0 mm
11:40 PM 54.8°F12.7°C 44.1°F6.7°C 67% 0.8 mph SE1.3 kmh SE 2.2 mph3.5 kmh 30.36 in1028.1 mb 0.00 in0.0 mm 0.00 in0.0 mm 0.00 in0.0 mm
11:45 PM 54.7°F12.6°C 44.0°F6.7°C 67% 0.7 mph S1.1 kmh S 1.7 mph2.7 kmh 30.36 in1028.1 mb 0.00 in0.0 mm 0.00 in0.0 mm 0.00 in0.0 mm
11:50 PM 54.5°F12.5°C 43.8°F6.6°C 67% 2.2 mph NE3.5 kmh NE 3.2 mph5.1 kmh 30.36 in1028.1 mb 0.00 in0.0 mm 0.00 in0.0 mm 0.00 in0.0 mm
11:55 PM 54.6°F12.6°C 43.9°F6.6°C 67% 0.9 mph SE1.4 kmh SE 2.7 mph4.3 kmh 30.36 in1028.1 mb 0.00 in0.0 mm 0.00 in0.0 mm 0.00 in0.0 mm